createdAt,value
2022-10-19T00:01:19.522Z,13.70
2022-10-19T00:06:30.920Z,13.70
2022-10-19T00:09:00.544Z,13.70
2022-10-19T00:11:28.655Z,13.70
2022-10-19T00:13:56.908Z,13.70
2022-10-19T00:16:25.235Z,13.60
2022-10-19T00:18:52.153Z,13.50
2022-10-19T00:21:20.025Z,13.60
2022-10-19T00:23:47.197Z,13.50
2022-10-19T00:26:14.428Z,13.40
2022-10-19T00:28:42.221Z,13.40
2022-10-19T00:31:12.515Z,13.40
2022-10-19T00:33:39.988Z,13.40
2022-10-19T00:36:14.456Z,13.30
2022-10-19T00:38:42.374Z,13.30
2022-10-19T00:41:09.362Z,13.20
2022-10-19T00:44:28.203Z,13.20
2022-10-19T00:46:59.547Z,13.20
2022-10-19T00:49:30.201Z,13.20
2022-10-19T00:52:05.030Z,13.10
2022-10-19T00:54:33.483Z,13.10
2022-10-19T00:57:00.496Z,13.10
2022-10-19T00:59:31.768Z,13.10
2022-10-19T01:01:59.222Z,13.00
2022-10-19T01:04:28.121Z,13.00
2022-10-19T01:06:55.338Z,12.90
2022-10-19T01:09:22.136Z,13.00
2022-10-19T01:12:03.776Z,12.90
2022-10-19T01:14:39.214Z,12.90
2022-10-19T01:17:27.371Z,12.90
2022-10-19T01:20:40.152Z,12.80
2022-10-19T01:23:34.074Z,12.80
2022-10-19T01:26:37.184Z,12.80
2022-10-19T01:29:34.460Z,12.70
2022-10-19T01:32:12.718Z,12.60
2022-10-19T01:34:44.688Z,12.60
2022-10-19T01:37:30.761Z,12.60
2022-10-19T01:40:38.981Z,12.60
2022-10-19T01:43:30.435Z,12.50
2022-10-19T01:46:04.841Z,12.50
2022-10-19T01:48:35.909Z,12.50
2022-10-19T01:51:07.685Z,12.40
2022-10-19T01:53:41.322Z,12.40
2022-10-19T01:56:09.633Z,12.40
2022-10-19T01:58:38.930Z,12.40
2022-10-19T02:01:09.044Z,12.40
2022-10-19T02:03:38.060Z,12.40
2022-10-19T02:06:07.202Z,12.40
2022-10-19T02:09:00.201Z,12.40
2022-10-19T02:11:27.176Z,12.30
2022-10-19T02:13:59.509Z,12.30
2022-10-19T02:16:41.065Z,12.30
2022-10-19T02:19:09.861Z,12.30
2022-10-19T02:21:36.792Z,12.20
2022-10-19T02:24:03.766Z,12.20
2022-10-19T02:26:30.649Z,12.20
2022-10-19T02:28:57.862Z,12.30
2022-10-19T02:31:25.393Z,12.20
2022-10-19T02:33:52.722Z,12.10
2022-10-19T02:36:20.135Z,12.10
2022-10-19T02:38:47.019Z,12.20
2022-10-19T02:41:36.865Z,12.10
2022-10-19T02:44:18.306Z,12.10
2022-10-19T02:46:50.211Z,12.10
2022-10-19T02:49:17.623Z,12.00
2022-10-19T02:52:00.102Z,12.00
2022-10-19T02:54:27.060Z,12.10
2022-10-19T02:56:54.059Z,12.10
2022-10-19T02:59:21.018Z,12.10
2022-10-19T03:01:48.121Z,12.00
2022-10-19T03:04:15.244Z,11.90
2022-10-19T03:06:42.025Z,12.00
2022-10-19T03:09:08.889Z,12.00
2022-10-19T03:11:35.724Z,12.10
2022-10-19T03:14:02.620Z,12.00
2022-10-19T03:16:29.412Z,12.00
2022-10-19T03:18:56.202Z,12.00
2022-10-19T03:21:23.225Z,12.00
2022-10-19T03:23:49.990Z,12.00
2022-10-19T03:26:17.763Z,12.10
2022-10-19T03:28:44.672Z,12.10
2022-10-19T03:31:11.820Z,12.00
2022-10-19T03:33:38.638Z,12.00
2022-10-19T03:36:24.995Z,12.00
2022-10-19T03:38:55.611Z,12.10
2022-10-19T03:41:24.481Z,12.10
2022-10-19T03:43:51.635Z,12.10
2022-10-19T03:46:18.831Z,12.30
2022-10-19T03:48:45.951Z,12.30
2022-10-19T03:51:15.539Z,12.30
2022-10-19T03:53:44.105Z,12.30
2022-10-19T03:56:17.644Z,12.20
2022-10-19T03:58:45.631Z,12.20
2022-10-19T04:01:20.987Z,12.30
2022-10-19T04:03:47.795Z,12.30
2022-10-19T04:06:21.211Z,12.30
2022-10-19T04:08:50.211Z,12.40
2022-10-19T04:11:18.848Z,12.40
2022-10-19T04:13:49.270Z,12.50
2022-10-19T04:16:16.129Z,12.40
2022-10-19T04:18:42.962Z,12.40
2022-10-19T04:21:26.847Z,12.40
2022-10-19T04:23:57.898Z,12.40
2022-10-19T04:26:24.699Z,12.40
2022-10-19T04:28:51.654Z,12.30
2022-10-19T04:31:18.548Z,12.40
2022-10-19T04:36:13.755Z,12.40
2022-10-19T04:38:40.790Z,12.50
2022-10-19T04:41:14.495Z,12.50
2022-10-19T04:43:41.650Z,12.50
2022-10-19T04:46:11.600Z,12.60
2022-10-19T04:48:39.602Z,12.60
2022-10-19T04:51:06.610Z,12.50
2022-10-19T04:53:33.841Z,12.50
2022-10-19T04:56:04.326Z,12.60
2022-10-19T04:58:31.147Z,12.50
2022-10-19T05:00:57.991Z,12.60
2022-10-19T05:03:24.930Z,12.70
2022-10-19T05:05:51.685Z,12.60
2022-10-19T05:08:18.418Z,12.60
2022-10-19T05:10:47.603Z,12.50
2022-10-19T05:13:14.811Z,12.60
2022-10-19T05:15:41.687Z,12.50
2022-10-19T05:18:08.503Z,12.50
2022-10-19T05:20:35.283Z,12.50
2022-10-19T05:23:06.223Z,12.50
2022-10-19T05:25:34.106Z,12.50
2022-10-19T05:28:00.911Z,12.40
2022-10-19T05:30:27.650Z,12.50
2022-10-19T05:32:54.405Z,12.40
2022-10-19T05:35:22.605Z,12.50
2022-10-19T05:37:53.971Z,12.50
2022-10-19T05:40:20.780Z,12.50
2022-10-19T05:42:47.532Z,12.50
2022-10-19T05:45:14.306Z,12.60
2022-10-19T05:47:41.056Z,12.70
2022-10-19T05:50:08.155Z,12.80
2022-10-19T05:52:34.908Z,12.90
2022-10-19T05:55:01.687Z,12.90
2022-10-19T05:57:28.472Z,12.80
2022-10-19T05:59:58.306Z,13.00
2022-10-19T06:02:25.076Z,12.90
2022-10-19T06:04:51.818Z,12.90
2022-10-19T06:07:18.581Z,12.90
2022-10-19T06:09:46.137Z,12.80
2022-10-19T06:12:14.099Z,12.90
2022-10-19T06:14:43.065Z,13.00
2022-10-19T06:17:10.797Z,13.00
2022-10-19T06:19:37.748Z,13.00
2022-10-19T06:22:04.492Z,13.10
2022-10-19T06:24:31.332Z,13.10
2022-10-19T06:26:58.058Z,13.00
2022-10-19T06:29:24.799Z,13.10
2022-10-19T06:31:52.182Z,13.10
2022-10-19T06:34:19.072Z,13.10
2022-10-19T06:36:45.855Z,13.20
2022-10-19T06:39:12.655Z,13.30
2022-10-19T06:41:39.451Z,13.10
2022-10-19T06:44:06.208Z,13.20
2022-10-19T06:46:33.920Z,13.30
2022-10-19T06:49:02.416Z,13.20
2022-10-19T06:51:30.639Z,13.30
2022-10-19T06:53:57.702Z,13.20
2022-10-19T06:56:25.859Z,13.20
2022-10-19T06:58:53.190Z,13.30
2022-10-19T07:01:20.310Z,13.30
2022-10-19T07:03:47.303Z,13.30
2022-10-19T07:06:14.314Z,13.20
2022-10-19T07:08:42.344Z,13.40
2022-10-19T07:11:18.925Z,13.40
2022-10-19T07:13:45.733Z,13.50
2022-10-19T07:16:19.507Z,13.50
2022-10-19T07:18:51.256Z,13.40
2022-10-19T07:21:19.098Z,13.50
2022-10-19T07:23:47.459Z,13.60
2022-10-19T07:26:23.932Z,13.70
2022-10-19T07:28:51.552Z,13.80
2022-10-19T07:31:23.453Z,14.20
2022-10-19T07:34:01.285Z,14.90
2022-10-19T07:36:30.324Z,15.60
2022-10-19T07:38:57.499Z,16.10
2022-10-19T07:41:25.623Z,16.20
2022-10-19T07:43:53.197Z,16.10
2022-10-19T07:46:26.176Z,16.00
2022-10-19T07:48:53.782Z,15.50
2022-10-19T07:51:22.379Z,15.40
2022-10-19T07:53:49.208Z,15.40
2022-10-19T07:56:19.051Z,15.30
2022-10-19T07:58:46.168Z,15.00
2022-10-19T08:01:18.261Z,14.90
2022-10-19T08:06:33.045Z,14.70
2022-10-19T08:08:59.910Z,14.70
2022-10-19T08:11:29.396Z,14.60
2022-10-19T08:13:58.605Z,14.30
2022-10-19T08:16:32.851Z,14.20
2022-10-19T08:19:13.155Z,14.20
2022-10-19T08:21:42.129Z,14.00
2022-10-19T08:24:09.332Z,14.10
2022-10-19T08:26:40.596Z,14.20
2022-10-19T08:29:17.072Z,14.10
2022-10-19T08:31:45.691Z,14.00
2022-10-19T08:34:13.843Z,14.00
2022-10-19T08:39:12.851Z,14.20
2022-10-19T08:42:01.021Z,14.40
2022-10-19T08:44:59.401Z,14.50
2022-10-19T08:47:55.024Z,14.50
2022-10-19T08:50:25.966Z,14.50
2022-10-19T08:53:02.750Z,14.50
2022-10-19T08:56:08.454Z,14.60
2022-10-19T08:59:07.269Z,14.70
2022-10-19T09:01:42.939Z,14.80
2022-10-19T09:04:17.226Z,14.70
2022-10-19T09:06:49.926Z,14.60
2022-10-19T09:09:19.436Z,14.50
2022-10-19T09:11:51.698Z,14.70
2022-10-19T09:14:18.442Z,14.80
2022-10-19T09:16:46.305Z,14.90
2022-10-19T09:19:22.083Z,15.10
2022-10-19T09:21:50.926Z,15.00
2022-10-19T09:24:36.903Z,15.00
2022-10-19T09:27:04.039Z,15.10
2022-10-19T09:29:48.068Z,15.20
2022-10-19T09:32:24.461Z,15.00
2022-10-19T09:35:02.407Z,14.80
2022-10-19T09:40:02.120Z,14.70
2022-10-19T09:42:30.395Z,14.50
2022-10-19T09:45:00.453Z,14.40
2022-10-19T09:47:42.576Z,14.30
2022-10-19T09:50:19.827Z,14.30
2022-10-19T09:52:48.939Z,14.40
2022-10-19T09:55:36.908Z,14.40
2022-10-19T09:58:27.028Z,14.40
2022-10-19T10:00:57.791Z,14.80
2022-10-19T10:03:40.310Z,15.00
2022-10-19T10:06:14.872Z,15.10
2022-10-19T10:09:00.095Z,15.20
2022-10-19T10:11:34.747Z,15.30
2022-10-19T10:14:14.598Z,15.20
2022-10-19T10:16:41.498Z,15.30
2022-10-19T10:19:12.493Z,15.40
2022-10-19T10:21:52.610Z,15.40
2022-10-19T10:24:21.550Z,15.30
2022-10-19T10:26:51.687Z,15.20
2022-10-19T10:29:27.298Z,15.10
2022-10-19T10:32:16.189Z,15.00
2022-10-19T10:34:53.879Z,14.80
2022-10-19T10:37:22.689Z,14.80
2022-10-19T10:40:01.778Z,14.90
2022-10-19T10:42:40.247Z,15.20
2022-10-19T10:45:22.863Z,15.50
2022-10-19T10:47:50.177Z,15.60
2022-10-19T10:50:34.438Z,15.80
2022-10-19T10:53:07.121Z,15.90
2022-10-19T10:55:34.953Z,15.80
2022-10-19T10:58:16.586Z,15.80
2022-10-19T11:00:44.604Z,15.80
2022-10-19T11:03:22.775Z,15.90
2022-10-19T11:05:57.302Z,15.90
2022-10-19T11:08:43.396Z,15.80
2022-10-19T11:11:20.734Z,15.80
2022-10-19T11:13:59.121Z,16.10
2022-10-19T11:16:35.518Z,16.20
2022-10-19T11:19:08.015Z,16.20
2022-10-19T11:21:42.644Z,16.10
2022-10-19T11:24:18.101Z,16.00
2022-10-19T11:27:06.148Z,15.90
2022-10-19T11:29:41.868Z,15.90
2022-10-19T11:32:41.566Z,15.90
2022-10-19T11:35:34.260Z,16.00
2022-10-19T11:38:19.092Z,15.90
2022-10-19T11:41:16.973Z,15.80
2022-10-19T11:43:56.127Z,16.10
2022-10-19T11:46:52.798Z,16.50
2022-10-19T11:49:19.449Z,16.90
2022-10-19T11:52:06.424Z,17.00
2022-10-19T11:55:05.139Z,17.00
2022-10-19T11:57:41.260Z,16.70
2022-10-19T12:00:37.536Z,16.60
2022-10-19T12:03:41.346Z,16.40
2022-10-19T12:06:18.051Z,16.10
2022-10-19T12:08:58.469Z,16.00
2022-10-19T12:12:02.562Z,15.80
2022-10-19T12:14:36.819Z,15.70
2022-10-19T12:17:15.653Z,15.70
2022-10-19T12:19:47.782Z,15.70
2022-10-19T12:22:19.709Z,15.70
2022-10-19T12:24:46.615Z,15.80
2022-10-19T12:27:16.281Z,15.80
2022-10-19T12:29:47.869Z,15.70
2022-10-19T12:32:17.293Z,15.60
2022-10-19T12:35:03.286Z,15.60
2022-10-19T12:37:33.243Z,15.50
2022-10-19T12:40:25.688Z,15.50
2022-10-19T12:43:10.840Z,15.40
2022-10-19T12:46:00.105Z,15.30
2022-10-19T12:48:26.838Z,15.50
2022-10-19T12:50:53.938Z,15.50
2022-10-19T12:53:28.560Z,15.50
2022-10-19T12:56:04.049Z,15.50
2022-10-19T12:58:48.159Z,15.70
2022-10-19T13:01:35.219Z,15.60
2022-10-19T13:04:21.508Z,15.60
2022-10-19T13:06:58.840Z,15.60
2022-10-19T13:09:36.643Z,15.60
2022-10-19T13:12:21.595Z,15.50
2022-10-19T13:15:00.328Z,15.50
2022-10-19T13:17:49.021Z,15.40
2022-10-19T13:20:15.824Z,15.30
2022-10-19T13:23:11.456Z,15.30
2022-10-19T13:25:39.312Z,15.20
2022-10-19T13:28:17.607Z,15.10
2022-10-19T13:30:44.346Z,15.10
2022-10-19T13:33:25.995Z,15.10
2022-10-19T13:35:58.659Z,14.90
2022-10-19T13:38:38.917Z,14.90
2022-10-19T13:41:16.427Z,14.90
2022-10-19T13:43:55.665Z,14.80
2022-10-19T13:46:32.571Z,14.90
2022-10-19T13:49:04.765Z,14.90
2022-10-19T13:52:01.350Z,14.80
2022-10-19T13:55:04.555Z,14.80
2022-10-19T13:57:53.137Z,14.80
2022-10-19T14:00:22.374Z,14.80
2022-10-19T14:03:19.838Z,14.80
2022-10-19T14:06:23.462Z,14.70
2022-10-19T14:09:27.363Z,14.80
2022-10-19T14:12:04.350Z,14.80
2022-10-19T14:14:38.335Z,14.90
2022-10-19T14:19:50.605Z,14.70
2022-10-19T14:22:25.109Z,14.70
2022-10-19T14:24:52.494Z,14.60
2022-10-19T14:27:24.497Z,14.40
2022-10-19T14:29:53.881Z,14.30
2022-10-19T14:32:26.023Z,14.20
2022-10-19T14:34:53.824Z,14.10
2022-10-19T14:37:26.551Z,14.10
2022-10-19T14:40:26.495Z,14.10
2022-10-19T14:42:55.790Z,14.00
2022-10-19T14:45:28.731Z,14.00
2022-10-19T14:48:07.336Z,14.00
2022-10-19T14:50:54.993Z,13.90
2022-10-19T14:53:44.719Z,13.80
2022-10-19T14:56:20.951Z,13.80
2022-10-19T14:58:58.228Z,13.80
2022-10-19T15:01:25.488Z,13.70
2022-10-19T15:03:53.302Z,13.70
2022-10-19T15:06:25.648Z,13.70
2022-10-19T15:08:56.141Z,13.60
2022-10-19T15:11:38.732Z,13.70
2022-10-19T15:14:30.176Z,13.70
2022-10-19T15:17:00.106Z,13.70
2022-10-19T15:19:31.373Z,13.70
2022-10-19T15:22:19.868Z,13.70
2022-10-19T15:25:07.463Z,13.60
2022-10-19T15:27:35.645Z,13.60
2022-10-19T15:30:17.639Z,13.60
2022-10-19T15:32:46.881Z,13.50
2022-10-19T15:35:37.527Z,13.40
2022-10-19T15:38:04.374Z,13.70
2022-10-19T15:40:36.863Z,13.50
2022-10-19T15:43:45.105Z,13.40
2022-10-19T15:46:25.801Z,13.30
2022-10-19T15:48:55.521Z,13.40
2022-10-19T15:51:25.242Z,13.30
2022-10-19T15:53:56.032Z,13.30
2022-10-19T15:56:25.736Z,13.30
2022-10-19T15:58:56.011Z,13.20
2022-10-19T16:01:26.230Z,13.30
2022-10-19T16:03:53.593Z,13.20
2022-10-19T16:06:23.293Z,13.20
2022-10-19T16:08:54.218Z,13.20
2022-10-19T16:11:25.739Z,13.10
2022-10-19T16:13:52.465Z,13.10
2022-10-19T16:16:21.542Z,13.20
2022-10-19T16:18:48.321Z,13.10
2022-10-19T16:21:15.412Z,13.20
2022-10-19T16:23:42.426Z,13.10
2022-10-19T16:26:09.433Z,13.10
2022-10-19T16:28:36.320Z,13.10
2022-10-19T16:31:03.113Z,13.10
2022-10-19T16:33:29.910Z,13.00
2022-10-19T16:35:56.704Z,13.10
2022-10-19T16:38:23.550Z,13.00
2022-10-19T16:40:50.330Z,13.00
2022-10-19T16:43:17.075Z,12.90
2022-10-19T16:45:44.418Z,12.90
2022-10-19T16:48:12.741Z,12.90
2022-10-19T16:50:39.537Z,12.90
2022-10-19T16:53:10.595Z,12.90
2022-10-19T16:55:39.706Z,12.90
2022-10-19T16:58:06.980Z,12.90
2022-10-19T17:00:35.375Z,13.00
2022-10-19T17:03:02.281Z,12.90
2022-10-19T17:05:29.090Z,12.90
2022-10-19T17:07:55.867Z,12.90
2022-10-19T17:10:22.667Z,12.90
2022-10-19T17:12:49.446Z,12.90
2022-10-19T17:15:41.520Z,12.80
2022-10-19T17:18:03.588Z,12.90
2022-10-19T17:20:32.101Z,12.80
2022-10-19T17:22:59.108Z,12.80
2022-10-19T17:25:25.956Z,12.80
2022-10-19T17:27:52.806Z,12.80
2022-10-19T17:30:19.813Z,12.80
2022-10-19T17:32:46.590Z,12.70
2022-10-19T17:35:13.599Z,12.70
2022-10-19T17:37:40.353Z,12.60
2022-10-19T17:40:07.842Z,12.60
2022-10-19T17:42:36.659Z,12.50
2022-10-19T17:45:03.603Z,12.50
2022-10-19T17:47:30.631Z,12.50
2022-10-19T17:49:57.437Z,12.50
2022-10-19T17:52:24.184Z,12.30
2022-10-19T17:55:11.244Z,12.20
2022-10-19T17:57:38.047Z,12.20
2022-10-19T18:00:08.506Z,12.10
2022-10-19T18:02:35.899Z,12.00
2022-10-19T18:05:04.701Z,11.90
2022-10-19T18:07:32.157Z,11.80
2022-10-19T18:09:59.061Z,11.70
2022-10-19T18:12:26.792Z,11.60
2022-10-19T18:14:53.599Z,11.50
2022-10-19T18:17:24.050Z,11.50
2022-10-19T18:19:53.794Z,11.50
2022-10-19T18:22:21.839Z,11.60
2022-10-19T18:24:49.561Z,11.40
2022-10-19T18:27:16.356Z,11.40
2022-10-19T18:29:43.263Z,11.40
2022-10-19T18:32:11.754Z,11.30
2022-10-19T18:34:39.142Z,11.30
2022-10-19T18:37:07.255Z,11.30
2022-10-19T18:39:34.185Z,11.20
2022-10-19T18:42:01.101Z,11.10
2022-10-19T18:44:30.408Z,11.10
2022-10-19T18:46:59.474Z,11.10
2022-10-19T18:49:26.553Z,11.10
2022-10-19T18:51:55.440Z,11.10
2022-10-19T18:54:23.673Z,11.10
2022-10-19T18:56:50.517Z,11.10
2022-10-19T18:59:17.457Z,11.10
2022-10-19T19:01:44.525Z,11.10
2022-10-19T19:04:12.463Z,11.00
2022-10-19T19:06:39.342Z,10.90
2022-10-19T19:09:08.901Z,11.00
2022-10-19T19:11:38.292Z,10.80
2022-10-19T19:14:16.821Z,10.90
2022-10-19T19:16:45.166Z,10.90
2022-10-19T19:19:14.242Z,10.80
2022-10-19T19:21:44.086Z,10.70
2022-10-19T19:24:14.360Z,10.70
2022-10-19T19:26:44.633Z,10.80
2022-10-19T19:29:11.433Z,10.70
2022-10-19T19:31:39.318Z,10.80
2022-10-19T19:34:07.733Z,10.70
2022-10-19T19:36:34.803Z,10.70
2022-10-19T19:39:02.452Z,10.50
2022-10-19T19:41:31.163Z,10.50
2022-10-19T19:43:58.938Z,10.60
2022-10-19T19:46:25.800Z,10.70
2022-10-19T19:49:01.463Z,10.60
2022-10-19T19:51:29.794Z,10.60
2022-10-19T19:53:56.907Z,10.60
2022-10-19T19:56:24.432Z,10.40
2022-10-19T19:58:56.000Z,10.40
2022-10-19T20:01:23.490Z,10.50
2022-10-19T20:03:50.628Z,10.50
2022-10-19T20:06:22.118Z,10.50
2022-10-19T20:08:52.046Z,10.50
2022-10-19T20:11:19.232Z,10.50
2022-10-19T20:13:46.273Z,10.30
2022-10-19T20:16:18.962Z,10.20
2022-10-19T20:18:48.195Z,10.20
2022-10-19T20:21:15.755Z,10.20
2022-10-19T20:23:47.085Z,10.20
2022-10-19T20:26:18.315Z,10.30
2022-10-19T20:28:45.575Z,10.20
2022-10-19T20:31:13.340Z,10.20
2022-10-19T20:33:41.934Z,10.10
2022-10-19T20:36:14.991Z,10.00
2022-10-19T20:38:47.097Z,10.20
2022-10-19T20:41:13.978Z,10.10
2022-10-19T20:43:40.773Z,10.20
2022-10-19T20:46:17.731Z,10.20
2022-10-19T20:48:45.309Z,10.20
2022-10-19T20:51:18.459Z,10.20
2022-10-19T20:53:48.071Z,10.10
2022-10-19T20:56:19.294Z,10.00
2022-10-19T20:58:47.083Z,9.90
2022-10-19T21:01:16.998Z,9.80
2022-10-19T21:03:55.484Z,9.70
2022-10-19T21:06:24.428Z,9.60
2022-10-19T21:08:52.042Z,9.40
2022-10-19T21:11:25.024Z,9.40
2022-10-19T21:13:56.604Z,9.40
2022-10-19T21:16:27.555Z,9.40
2022-10-19T21:18:54.640Z,9.30
2022-10-19T21:21:24.458Z,9.20
2022-10-19T21:23:55.122Z,9.10
2022-10-19T21:26:24.357Z,9.00
2022-10-19T21:28:54.432Z,9.00
2022-10-19T21:31:23.319Z,8.80
2022-10-19T21:33:51.682Z,8.60
2022-10-19T21:36:19.395Z,8.60
2022-10-19T21:38:46.367Z,8.50
2022-10-19T21:41:16.403Z,8.50
2022-10-19T21:43:43.385Z,8.40
2022-10-19T21:46:15.347Z,8.40
2022-10-19T21:48:43.114Z,8.40
2022-10-19T21:51:28.050Z,8.30
2022-10-19T21:53:54.781Z,8.30
2022-10-19T21:56:21.680Z,8.20
2022-10-19T21:58:50.764Z,8.20
2022-10-19T22:01:19.036Z,8.10
2022-10-19T22:03:45.854Z,8.10
2022-10-19T22:06:13.624Z,8.10
2022-10-19T22:08:44.180Z,8.10
2022-10-19T22:11:12.955Z,8.10
2022-10-19T22:13:40.398Z,8.10
2022-10-19T22:16:16.302Z,7.90
2022-10-19T22:18:43.607Z,7.90
2022-10-19T22:21:16.520Z,8.00
2022-10-19T22:23:44.903Z,7.80
2022-10-19T22:26:35.885Z,7.80
2022-10-19T22:29:05.237Z,7.80
2022-10-19T22:31:32.988Z,7.70
2022-10-19T22:34:01.723Z,7.70
2022-10-19T22:36:28.606Z,7.80
2022-10-19T22:38:55.624Z,7.70
2022-10-19T22:41:22.497Z,7.60
2022-10-19T22:43:49.312Z,7.40
2022-10-19T22:46:16.090Z,7.30
2022-10-19T22:48:42.813Z,7.20
2022-10-19T22:51:09.638Z,7.00
2022-10-19T22:53:36.375Z,7.00
2022-10-19T22:56:03.207Z,6.80
2022-10-19T22:58:30.017Z,6.80
2022-10-19T23:01:09.104Z,6.60
2022-10-19T23:03:36.206Z,6.60
2022-10-19T23:06:03.127Z,6.50
2022-10-19T23:08:29.974Z,6.30
2022-10-19T23:10:56.774Z,6.40
2022-10-19T23:13:23.838Z,6.30
2022-10-19T23:15:50.923Z,6.30
2022-10-19T23:18:18.535Z,6.30
2022-10-19T23:20:59.278Z,6.20
2022-10-19T23:23:27.059Z,6.10
2022-10-19T23:26:02.317Z,6.00
2022-10-19T23:28:30.577Z,6.00
2022-10-19T23:30:58.878Z,5.90
2022-10-19T23:33:26.407Z,5.80
2022-10-19T23:35:53.250Z,5.90
2022-10-19T23:38:19.961Z,5.80
2022-10-19T23:40:46.681Z,5.80
2022-10-19T23:43:13.516Z,5.80
2022-10-19T23:45:40.377Z,5.80
2022-10-19T23:48:07.186Z,5.80
2022-10-19T23:50:33.982Z,5.80
2022-10-19T23:53:00.735Z,5.70
2022-10-19T23:55:27.513Z,5.60
2022-10-19T23:57:54.258Z,5.70
